createdAt,value
2018-09-27T00:02:26.838Z,101335.27
2018-09-27T00:04:55.365Z,101401.78
2018-09-27T00:07:23.948Z,101396.92
2018-09-27T00:09:52.437Z,101396.48
2018-09-27T00:12:21.005Z,101385.98
2018-09-27T00:14:49.558Z,101384.64
2018-09-27T00:17:18.165Z,101392.08
2018-09-27T00:19:46.736Z,101386.36
2018-09-27T00:22:15.356Z,101385.45
2018-09-27T00:24:43.977Z,101386.74
2018-09-27T00:27:12.551Z,101381.47
2018-09-27T00:29:41.104Z,101384.50
2018-09-27T00:32:09.772Z,101384.44
2018-09-27T00:34:38.507Z,101389.19
2018-09-27T00:37:07.055Z,101398.36
2018-09-27T00:39:35.581Z,101389.99
2018-09-27T00:42:04.179Z,101385.53
2018-09-27T00:44:32.707Z,101387.67
2018-09-27T00:47:01.332Z,101393.37
2018-09-27T00:49:29.956Z,101396.84
2018-09-27T00:51:58.591Z,101387.23
2018-09-27T00:54:27.056Z,101385.91
2018-09-27T00:56:55.623Z,101384.16
2018-09-27T00:59:24.213Z,101388.52
2018-09-27T01:01:52.769Z,101388.09
2018-09-27T01:04:21.293Z,101392.90
2018-09-27T01:06:49.843Z,101388.95
2018-09-27T01:09:18.354Z,101388.54
2018-09-27T01:11:46.935Z,101392.48
2018-09-27T01:14:15.552Z,101387.64
2018-09-27T01:16:44.196Z,101385.89
2018-09-27T01:19:12.853Z,101381.05
2018-09-27T01:21:41.544Z,101383.21
2018-09-27T01:24:10.079Z,101376.18
2018-09-27T01:26:38.600Z,101375.70
2018-09-27T01:29:07.093Z,101375.71
2018-09-27T01:31:35.694Z,101368.67
2018-09-27T01:34:04.322Z,101373.03
2018-09-27T01:36:32.973Z,101371.72
2018-09-27T01:39:01.577Z,101373.90
2018-09-27T01:41:30.099Z,101368.23
2018-09-27T01:43:58.627Z,101369.54
2018-09-27T01:46:27.206Z,101367.78
2018-09-27T01:48:55.852Z,101367.78
2018-09-27T01:51:24.422Z,101342.64
2018-09-27T01:53:52.883Z,101370.80
2018-09-27T01:56:21.432Z,101365.50
2018-09-27T01:58:49.965Z,101362.37
2018-09-27T02:01:18.455Z,101357.55
2018-09-27T02:03:46.936Z,101361.03
2018-09-27T02:06:15.378Z,101360.17
2018-09-27T02:08:43.876Z,101360.59
2018-09-27T02:11:12.584Z,101354.00
2018-09-27T02:13:41.239Z,101350.90
2018-09-27T02:16:09.832Z,101350.02
2018-09-27T02:18:38.381Z,101356.09
2018-09-27T02:21:07.043Z,101350.41
2018-09-27T02:23:36.082Z,101347.78
2018-09-27T02:26:04.736Z,101341.61
2018-09-27T02:28:33.384Z,101335.91
2018-09-27T02:31:01.970Z,101338.53
2018-09-27T02:33:30.577Z,101334.16
2018-09-27T02:35:59.160Z,101327.95
2018-09-27T02:38:27.924Z,101322.27
2018-09-27T02:40:56.464Z,101323.12
2018-09-27T02:43:24.985Z,101324.41
2018-09-27T02:45:53.486Z,101328.80
2018-09-27T02:48:22.008Z,101322.66
2018-09-27T02:50:50.598Z,101328.32
2018-09-27T02:53:19.152Z,101322.59
2018-09-27T02:55:47.608Z,101321.70
2018-09-27T02:58:16.130Z,101323.02
2018-09-27T03:00:44.701Z,101324.30
2018-09-27T03:03:13.349Z,101317.27
2018-09-27T03:05:41.877Z,101319.89
2018-09-27T03:08:10.447Z,101315.48
2018-09-27T03:10:38.936Z,101317.21
2018-09-27T03:13:07.403Z,101311.91
2018-09-27T03:15:35.879Z,101307.94
2018-09-27T03:18:04.390Z,101304.87
2018-09-27T03:20:32.950Z,101301.36
2018-09-27T03:23:01.482Z,101297.39
2018-09-27T03:25:30.058Z,101299.59
2018-09-27T03:27:58.693Z,101291.28
2018-09-27T03:30:27.169Z,101288.66
2018-09-27T03:35:29.504Z,101280.79
2018-09-27T03:37:58.149Z,101282.97
2018-09-27T03:40:26.802Z,101285.14
2018-09-27T03:42:55.300Z,101279.45
2018-09-27T03:45:23.820Z,101279.45
2018-09-27T03:47:52.325Z,101275.48
2018-09-27T03:50:20.823Z,101271.94
2018-09-27T03:52:49.318Z,101268.42
2018-09-27T03:55:17.832Z,101273.64
2018-09-27T03:57:46.333Z,101263.09
2018-09-27T04:00:14.812Z,101259.16
2018-09-27T04:02:43.417Z,101258.70
2018-09-27T04:05:11.941Z,101259.16
2018-09-27T04:07:40.532Z,101254.36
2018-09-27T04:10:09.107Z,101251.29
2018-09-27T04:12:38.071Z,101249.95
2018-09-27T04:15:06.624Z,101255.61
2018-09-27T04:17:35.186Z,101251.64
2018-09-27T04:20:03.689Z,101251.20
2018-09-27T04:22:32.222Z,101251.20
2018-09-27T04:25:00.768Z,101252.06
2018-09-27T04:27:29.297Z,101226.09
2018-09-27T04:29:57.795Z,101253.34
2018-09-27T04:32:26.378Z,101252.93
2018-09-27T04:34:55.078Z,101256.80
2018-09-27T04:37:23.722Z,101256.38
2018-09-27T04:39:52.342Z,101263.35
2018-09-27T04:42:20.964Z,101262.91
2018-09-27T04:44:49.483Z,101260.70
2018-09-27T04:47:18.471Z,101257.66
2018-09-27T04:49:47.056Z,101259.80
2018-09-27T04:52:15.693Z,101257.60
2018-09-27T04:54:44.481Z,101259.81
2018-09-27T04:57:13.141Z,101254.98
2018-09-27T04:59:42.238Z,101258.05
2018-09-27T05:02:11.059Z,101260.22
2018-09-27T05:04:39.712Z,101258.91
2018-09-27T05:07:08.424Z,101257.13
2018-09-27T05:09:37.239Z,101259.30
2018-09-27T05:12:05.931Z,101252.75
2018-09-27T05:14:34.610Z,101251.85
2018-09-27T05:17:03.286Z,101248.37
2018-09-27T05:19:31.955Z,101245.72
2018-09-27T05:22:00.603Z,101245.27
2018-09-27T05:24:29.273Z,101247.44
2018-09-27T05:26:57.951Z,101248.75
2018-09-27T05:29:26.594Z,101245.69
2018-09-27T05:31:55.382Z,101243.92
2018-09-27T05:34:24.185Z,101240.86
2018-09-27T05:36:53.384Z,101237.82
2018-09-27T05:39:22.194Z,101241.34
2018-09-27T05:41:53.241Z,101239.16
2018-09-27T05:44:22.103Z,101241.81
2018-09-27T05:46:50.954Z,101237.84
2018-09-27T05:49:19.717Z,101237.02
2018-09-27T05:51:48.452Z,101232.67
2018-09-27T05:54:17.222Z,101232.25
2018-09-27T05:56:45.893Z,101226.09
2018-09-27T05:59:14.883Z,101227.45
2018-09-27T06:01:43.634Z,101230.08
2018-09-27T06:04:12.483Z,101229.27
2018-09-27T06:06:41.217Z,101225.81
2018-09-27T06:09:11.935Z,101224.09
2018-09-27T06:11:49.102Z,101228.47
2018-09-27T06:14:17.896Z,101222.39
2018-09-27T06:16:46.890Z,101225.52
2018-09-27T06:19:15.712Z,101221.72
2018-09-27T06:21:44.500Z,101222.80
2018-09-27T06:24:13.217Z,101216.54
2018-09-27T06:26:42.571Z,101215.58
2018-09-27T06:29:11.183Z,101222.08
2018-09-27T06:31:39.898Z,101220.13
2018-09-27T06:34:08.609Z,101215.02
2018-09-27T06:36:37.245Z,101215.45
2018-09-27T06:39:08.160Z,101217.99
2018-09-27T06:41:36.770Z,101217.81
2018-09-27T06:44:05.427Z,101213.99
2018-09-27T06:46:33.957Z,101090.78
2018-09-27T06:49:02.673Z,101199.35
2018-09-27T06:51:31.495Z,101199.23
2018-09-27T06:54:00.134Z,101201.61
2018-09-27T06:56:28.846Z,101204.86
2018-09-27T06:58:57.533Z,101214.98
2018-09-27T07:01:26.252Z,101209.47
2018-09-27T07:03:55.086Z,101209.16
2018-09-27T07:06:23.810Z,101203.45
2018-09-27T07:08:52.384Z,101197.06
2018-09-27T07:11:20.951Z,101202.92
2018-09-27T07:13:49.542Z,101202.09
2018-09-27T07:16:18.120Z,101202.27
2018-09-27T07:18:46.845Z,101199.47
2018-09-27T07:21:15.480Z,101196.50
2018-09-27T07:23:44.122Z,101201.55
2018-09-27T07:26:12.955Z,101201.23
2018-09-27T07:28:41.790Z,101199.88
2018-09-27T07:31:10.449Z,101197.30
2018-09-27T07:33:38.943Z,101198.63
2018-09-27T07:36:07.527Z,101200.34
2018-09-27T07:38:36.181Z,101193.48
2018-09-27T07:41:04.713Z,101191.30
2018-09-27T07:43:33.245Z,101194.76
2018-09-27T07:46:01.840Z,101192.66
2018-09-27T07:48:30.500Z,101185.92
2018-09-27T07:50:59.281Z,101190.83
2018-09-27T07:53:28.462Z,101185.97
2018-09-27T07:55:57.103Z,101189.43
2018-09-27T07:58:25.742Z,101180.98
2018-09-27T08:00:55.528Z,101180.52
2018-09-27T08:03:24.261Z,101184.05
2018-09-27T08:05:53.077Z,101183.92
2018-09-27T08:08:21.748Z,101179.94
2018-09-27T08:10:50.486Z,101182.25
2018-09-27T08:13:19.112Z,101180.66
2018-09-27T08:15:47.811Z,101179.73
2018-09-27T08:18:16.439Z,101171.84
2018-09-27T08:20:45.337Z,101182.53
2018-09-27T08:23:13.732Z,101166.44
2018-09-27T08:25:42.732Z,101164.42
2018-09-27T08:28:11.452Z,101160.52
2018-09-27T08:30:41.058Z,101158.75
2018-09-27T08:33:10.241Z,101162.11
2018-09-27T08:35:38.994Z,101155.74
2018-09-27T08:38:07.684Z,101159.02
2018-09-27T08:40:36.355Z,101152.79
2018-09-27T08:43:04.989Z,101155.37
2018-09-27T08:45:33.648Z,101154.25
2018-09-27T08:48:02.072Z,101145.25
2018-09-27T08:50:30.648Z,101142.77
2018-09-27T08:52:59.464Z,101138.03
2018-09-27T08:55:28.171Z,101133.23
2018-09-27T08:57:56.787Z,101129.89
2018-09-27T09:00:25.576Z,101135.56
2018-09-27T09:02:54.153Z,101131.06
2018-09-27T09:05:22.696Z,101123.59
2018-09-27T09:07:51.505Z,101119.62
2018-09-27T09:10:20.226Z,101124.17
2018-09-27T09:12:48.783Z,101118.77
2018-09-27T09:15:17.401Z,101115.05
2018-09-27T09:17:46.098Z,101109.66
2018-09-27T09:20:14.764Z,101109.13
2018-09-27T09:22:43.469Z,101107.71
2018-09-27T09:25:12.172Z,101107.17
2018-09-27T09:27:40.787Z,101101.70
2018-09-27T09:30:10.456Z,101099.42
2018-09-27T09:32:39.128Z,101104.34
2018-09-27T09:35:07.709Z,101101.03
2018-09-27T09:37:36.326Z,101096.27
2018-09-27T09:40:04.928Z,101090.05
2018-09-27T09:42:33.581Z,101086.53
2018-09-27T09:45:02.134Z,101073.31
2018-09-27T09:47:30.692Z,101077.91
2018-09-27T09:49:59.232Z,101076.29
2018-09-27T09:52:27.863Z,101070.83
2018-09-27T09:54:56.432Z,101067.54
2018-09-27T09:57:25.143Z,101054.02
2018-09-27T09:59:53.721Z,101047.34
2018-09-27T10:02:22.435Z,100916.20
2018-09-27T10:04:51.120Z,101051.28
2018-09-27T10:07:19.703Z,101049.02
2018-09-27T10:09:48.333Z,101040.56
2018-09-27T10:12:16.964Z,101045.65
2018-09-27T10:14:45.532Z,101040.94
2018-09-27T10:17:14.156Z,101036.05
2018-09-27T10:19:42.732Z,101031.84
2018-09-27T10:22:11.509Z,101031.44
2018-09-27T10:24:40.094Z,101022.85
2018-09-27T10:27:08.786Z,101018.38
2018-09-27T10:29:37.375Z,101016.54
2018-09-27T10:32:06.055Z,101015.30
2018-09-27T10:34:34.745Z,101017.40
2018-09-27T10:37:03.516Z,100998.97
2018-09-27T10:39:32.135Z,100994.22
2018-09-27T10:42:00.661Z,101001.52
2018-09-27T10:44:29.286Z,100994.14
2018-09-27T10:46:57.910Z,100994.52
2018-09-27T10:49:26.438Z,100994.52
2018-09-27T10:51:55.108Z,100990.66
2018-09-27T10:54:23.829Z,100990.02
2018-09-27T10:56:52.566Z,100993.83
2018-09-27T10:59:21.128Z,100981.84
2018-09-27T11:01:50.231Z,100975.20
2018-09-27T11:04:18.836Z,100977.17
2018-09-27T11:06:47.386Z,100977.98
2018-09-27T11:09:16.133Z,100973.38
2018-09-27T11:11:44.939Z,100978.14
2018-09-27T11:14:13.513Z,100972.73
2018-09-27T11:16:42.292Z,100966.98
2018-09-27T11:19:10.809Z,100961.08
2018-09-27T11:21:39.445Z,100953.85
2018-09-27T11:24:07.979Z,100957.02
2018-09-27T11:26:36.557Z,100954.09
2018-09-27T11:29:10.606Z,100944.91
2018-09-27T11:31:44.319Z,100938.51
2018-09-27T11:34:12.883Z,100935.52
2018-09-27T11:36:41.574Z,100928.75
2018-09-27T11:39:11.027Z,100927.66
2018-09-27T11:41:39.606Z,100914.97
2018-09-27T11:44:08.469Z,100906.08
2018-09-27T11:46:36.925Z,100899.70
2018-09-27T11:49:05.664Z,100905.50
2018-09-27T11:51:34.122Z,100897.15
2018-09-27T11:54:03.013Z,100883.64
2018-09-27T11:56:31.611Z,100881.94
2018-09-27T11:59:00.244Z,100871.84
2018-09-27T12:01:28.866Z,100867.58
2018-09-27T12:03:57.764Z,100858.25
2018-09-27T12:06:26.298Z,100852.41
2018-09-27T12:08:57.011Z,100847.95
2018-09-27T12:11:25.644Z,100835.15
2018-09-27T12:13:54.247Z,100838.11
2018-09-27T12:16:22.944Z,100812.67
2018-09-27T12:18:52.756Z,100818.84
2018-09-27T12:21:21.371Z,100805.01
2018-09-27T12:23:50.028Z,100816.72
2018-09-27T12:26:18.670Z,100815.59
2018-09-27T12:28:48.167Z,100808.94
2018-09-27T12:31:16.922Z,100803.83
2018-09-27T12:33:45.609Z,100796.73
2018-09-27T12:36:14.090Z,100795.80
2018-09-27T12:38:42.802Z,100780.36
2018-09-27T12:41:11.333Z,100776.48
2018-09-27T12:43:40.014Z,100785.33
2018-09-27T12:46:09.192Z,100777.16
2018-09-27T12:48:37.831Z,100771.94
2018-09-27T12:51:06.601Z,100771.12
2018-09-27T12:53:35.140Z,100762.59
2018-09-27T12:56:04.229Z,100753.44
2018-09-27T12:58:32.885Z,100758.77
2018-09-27T13:01:01.781Z,100759.30
2018-09-27T13:03:32.429Z,100750.33
2018-09-27T13:06:01.144Z,100737.61
2018-09-27T13:08:29.913Z,100733.91
2018-09-27T13:10:58.547Z,100732.44
2018-09-27T13:13:27.159Z,100720.48
2018-09-27T13:15:55.908Z,100708.35
2018-09-27T13:18:25.644Z,100707.23
2018-09-27T13:20:54.167Z,100703.94
2018-09-27T13:23:22.753Z,100706.20
2018-09-27T13:25:51.422Z,100704.21
2018-09-27T13:28:20.035Z,100691.36
2018-09-27T13:30:48.639Z,100684.63
2018-09-27T13:33:17.374Z,100682.25
2018-09-27T13:35:46.022Z,100683.00
2018-09-27T13:38:14.515Z,100675.77
2018-09-27T13:40:43.028Z,100670.38
2018-09-27T13:43:11.736Z,100675.30
2018-09-27T13:45:40.232Z,100660.74
2018-09-27T13:48:08.841Z,100668.50
2018-09-27T13:50:37.539Z,100657.16
2018-09-27T13:53:06.261Z,100647.41
2018-09-27T13:55:34.874Z,100668.27
2018-09-27T13:58:03.468Z,100644.27
2018-09-27T14:00:32.053Z,100645.70
2018-09-27T14:03:00.675Z,100644.08
2018-09-27T14:05:29.349Z,100642.95
2018-09-27T14:07:57.907Z,100641.81
2018-09-27T14:10:26.521Z,100636.31
2018-09-27T14:12:55.104Z,100637.09
2018-09-27T14:15:23.777Z,100634.50
2018-09-27T14:17:52.337Z,100629.49
2018-09-27T14:20:20.971Z,100626.89
2018-09-27T14:22:49.513Z,100624.99
2018-09-27T14:25:18.007Z,100619.04
2018-09-27T14:27:46.561Z,100616.66
2018-09-27T14:30:15.125Z,100612.33
2018-09-27T14:32:43.665Z,100608.57
2018-09-27T14:35:12.279Z,100599.67
2018-09-27T14:37:40.799Z,100600.64
2018-09-27T14:40:09.384Z,100593.63
2018-09-27T14:42:37.958Z,100593.34
2018-09-27T14:45:06.684Z,100594.52
2018-09-27T14:47:35.368Z,100590.41
2018-09-27T14:50:03.927Z,100578.98
2018-09-27T14:52:32.586Z,100581.30
2018-09-27T14:55:01.141Z,100575.47
2018-09-27T14:57:29.728Z,100574.51
2018-09-27T14:59:58.443Z,100573.45
2018-09-27T15:02:27.010Z,100564.44
2018-09-27T15:04:55.576Z,100559.45
2018-09-27T15:07:24.165Z,100554.25
2018-09-27T15:09:52.774Z,100553.11
2018-09-27T15:12:21.239Z,100557.52
2018-09-27T15:14:49.825Z,100555.13
2018-09-27T15:17:18.402Z,100553.91
2018-09-27T15:19:47.044Z,100553.70
2018-09-27T15:22:16.160Z,100550.84
2018-09-27T15:24:44.843Z,100554.78
2018-09-27T15:27:13.485Z,100550.16
2018-09-27T15:29:42.176Z,100549.11
2018-09-27T15:32:10.939Z,100547.97
2018-09-27T15:34:39.778Z,100543.55
2018-09-27T15:37:08.436Z,100537.59
2018-09-27T15:39:37.250Z,100538.75
2018-09-27T15:42:05.833Z,100530.66
2018-09-27T15:44:34.652Z,100530.94
2018-09-27T15:47:03.479Z,100537.55
2018-09-27T15:49:32.269Z,100538.87
2018-09-27T15:52:00.950Z,100529.96
2018-09-27T15:54:29.776Z,100535.31
2018-09-27T15:56:58.395Z,100530.98
2018-09-27T15:59:27.075Z,100524.17
2018-09-27T16:01:55.745Z,100526.83
2018-09-27T16:04:24.415Z,100517.00
2018-09-27T16:06:53.147Z,100238.18
2018-09-27T16:09:22.156Z,100511.99
2018-09-27T16:11:52.107Z,100507.94
2018-09-27T16:14:20.768Z,100508.47
2018-09-27T16:16:49.748Z,100503.95
2018-09-27T16:19:18.550Z,100507.55
2018-09-27T16:21:49.263Z,100503.48
2018-09-27T16:27:13.580Z,100493.50
2018-09-27T16:29:42.943Z,100491.23
2018-09-27T16:32:11.700Z,100493.09
2018-09-27T16:34:40.499Z,100491.80
2018-09-27T16:39:56.440Z,100492.32
2018-09-27T16:42:25.597Z,100229.30
2018-09-27T16:44:54.286Z,100494.66
2018-09-27T16:47:23.216Z,100493.70
2018-09-27T16:49:53.291Z,100492.01
2018-09-27T16:52:23.029Z,100487.98
2018-09-27T16:54:51.653Z,100373.95
2018-09-27T16:57:20.511Z,100490.78
2018-09-27T16:59:54.253Z,100503.12
2018-09-27T17:02:23.487Z,100495.34
2018-09-27T17:04:53.187Z,100504.74
2018-09-27T17:07:22.393Z,100496.92
2018-09-27T17:09:51.271Z,100490.08
2018-09-27T17:12:20.198Z,100489.88
2018-09-27T17:14:48.941Z,100487.03
2018-09-27T17:17:17.761Z,100488.59
2018-09-27T17:19:46.602Z,100486.97
2018-09-27T17:22:15.395Z,100487.13
2018-09-27T17:24:44.275Z,100486.77
2018-09-27T17:27:12.773Z,100480.66
2018-09-27T17:29:41.787Z,100486.08
2018-09-27T17:32:10.571Z,100487.05
2018-09-27T17:34:39.219Z,100478.81
2018-09-27T17:37:08.054Z,100483.81
2018-09-27T17:39:36.601Z,100481.20
2018-09-27T17:42:05.231Z,100484.79
2018-09-27T17:44:33.838Z,100484.37
2018-09-27T17:47:02.353Z,100480.73
2018-09-27T17:49:30.994Z,100476.18
2018-09-27T17:51:59.516Z,100477.89
2018-09-27T17:54:27.995Z,100483.58
2018-09-27T17:56:56.760Z,100474.72
2018-09-27T17:59:25.239Z,100477.74
2018-09-27T18:01:53.832Z,100479.43
2018-09-27T18:04:22.338Z,100487.77
2018-09-27T18:06:51.012Z,100487.16
2018-09-27T18:09:19.554Z,100490.04
2018-09-27T18:11:48.047Z,100489.86
2018-09-27T18:14:16.518Z,100481.25
2018-09-27T18:16:45.493Z,100484.25
2018-09-27T18:19:16.361Z,100483.16
2018-09-27T18:21:45.365Z,100467.36
2018-09-27T18:24:14.349Z,100473.95
2018-09-27T18:26:43.297Z,100475.13
2018-09-27T18:29:12.161Z,100477.59
2018-09-27T18:31:41.156Z,100476.10
2018-09-27T18:34:10.128Z,100478.84
2018-09-27T18:36:39.058Z,100484.80
2018-09-27T18:39:09.954Z,100474.37
2018-09-27T18:41:39.060Z,100474.65
2018-09-27T18:44:08.633Z,100475.37
2018-09-27T18:46:37.930Z,100476.00
2018-09-27T18:49:07.012Z,100476.19
2018-09-27T18:51:36.429Z,100474.57
2018-09-27T18:54:09.465Z,100478.78
2018-09-27T18:56:38.132Z,100475.58
2018-09-27T18:59:06.836Z,100476.23
2018-09-27T19:01:35.525Z,100479.08
2018-09-27T19:04:04.121Z,100477.08
2018-09-27T19:06:32.711Z,100477.30
2018-09-27T19:09:01.649Z,100475.27
2018-09-27T19:11:30.493Z,100472.42
2018-09-27T19:13:59.145Z,100471.67
2018-09-27T19:16:27.787Z,100474.05
2018-09-27T19:18:57.243Z,100474.30
2018-09-27T19:21:25.920Z,100476.61
2018-09-27T19:23:54.621Z,100478.98
2018-09-27T19:26:23.251Z,100478.27
2018-09-27T19:28:51.837Z,100474.84
2018-09-27T19:31:20.804Z,100476.23
2018-09-27T19:33:49.738Z,100475.54
2018-09-27T19:36:18.836Z,100476.55
2018-09-27T19:38:47.395Z,100470.98
2018-09-27T19:41:15.940Z,100475.02
2018-09-27T19:43:44.529Z,100474.29
2018-09-27T19:46:13.148Z,100469.56
2018-09-27T19:48:41.805Z,100476.75
2018-09-27T19:51:10.436Z,100473.84
2018-09-27T19:53:39.061Z,100475.39
2018-09-27T19:56:08.047Z,100471.59
2018-09-27T19:58:36.657Z,100468.66
2018-09-27T20:01:05.111Z,100466.19
2018-09-27T20:03:33.740Z,100472.02
2018-09-27T20:06:02.383Z,100467.28
2018-09-27T20:08:31.191Z,100463.42
2018-09-27T20:10:59.680Z,100471.04
2018-09-27T20:13:28.329Z,100466.72
2018-09-27T20:15:58.111Z,100465.56
2018-09-27T20:18:26.652Z,100471.02
2018-09-27T20:20:55.219Z,100470.70
2018-09-27T20:23:23.804Z,100465.55
2018-09-27T20:25:52.510Z,100475.30
2018-09-27T20:28:21.071Z,100468.85
2018-09-27T20:30:49.590Z,100469.78
2018-09-27T20:33:18.111Z,100473.36
2018-09-27T20:35:46.569Z,100473.88
2018-09-27T20:38:15.011Z,100470.90
2018-09-27T20:40:43.449Z,100469.69
2018-09-27T20:43:16.577Z,100471.50
2018-09-27T20:45:45.991Z,100467.17
2018-09-27T20:48:14.800Z,100468.59
2018-09-27T20:50:45.272Z,100469.14
2018-09-27T20:53:14.984Z,100474.06
2018-09-27T20:55:44.374Z,100468.85
2018-09-27T20:58:13.264Z,100477.31
2018-09-27T21:00:41.753Z,100478.30
2018-09-27T21:03:10.222Z,100476.61
2018-09-27T21:05:38.699Z,100477.13
2018-09-27T21:08:07.208Z,100475.95
2018-09-27T21:10:36.917Z,100465.91
2018-09-27T21:13:07.381Z,100462.92
2018-09-27T21:15:36.371Z,100466.98
2018-09-27T21:18:04.907Z,100468.39
2018-09-27T21:20:33.387Z,100471.53
2018-09-27T21:23:02.438Z,100468.09
2018-09-27T21:25:31.870Z,100465.11
2018-09-27T21:28:00.401Z,100463.41
2018-09-27T21:30:28.974Z,100462.14
2018-09-27T21:32:57.644Z,100463.55
2018-09-27T21:35:26.163Z,100464.11
2018-09-27T21:37:54.765Z,100463.70
2018-09-27T21:40:23.311Z,100458.93
2018-09-27T21:42:51.892Z,100460.73
2018-09-27T21:45:20.511Z,100452.88
2018-09-27T21:47:49.103Z,100455.98
2018-09-27T21:50:17.868Z,100460.00
2018-09-27T21:52:46.483Z,100466.25
2018-09-27T21:55:15.113Z,100465.45
2018-09-27T21:57:43.596Z,100466.41
2018-09-27T22:00:12.136Z,100468.67
2018-09-27T22:02:40.791Z,100467.92
2018-09-27T22:05:09.349Z,100466.69
2018-09-27T22:07:37.916Z,100473.33
2018-09-27T22:10:06.532Z,100472.94
2018-09-27T22:12:35.055Z,100473.00
2018-09-27T22:15:03.563Z,100473.08
2018-09-27T22:17:32.035Z,100469.62
2018-09-27T22:20:00.510Z,100476.27
2018-09-27T22:22:28.983Z,100466.20
2018-09-27T22:24:57.852Z,100466.27
2018-09-27T22:27:26.299Z,100461.06
2018-09-27T22:29:54.757Z,100467.69
2018-09-27T22:32:23.306Z,100459.40
2018-09-27T22:34:52.864Z,100457.69
2018-09-27T22:37:21.332Z,100454.19
2018-09-27T22:39:50.332Z,100463.89
2018-09-27T22:42:19.095Z,100462.20
2018-09-27T22:44:47.919Z,100466.66
2018-09-27T22:47:16.699Z,100467.99
2018-09-27T22:49:45.409Z,100469.78
2018-09-27T22:52:14.109Z,100466.38
2018-09-27T22:54:42.884Z,100457.64
2018-09-27T22:57:11.712Z,100458.59
2018-09-27T22:59:40.598Z,100452.97
2018-09-27T23:02:09.425Z,100447.76
2018-09-27T23:04:38.464Z,100452.61
2018-09-27T23:07:07.366Z,100448.24
2018-09-27T23:09:36.359Z,100451.83
2018-09-27T23:12:05.503Z,100454.05
2018-09-27T23:14:34.463Z,100458.48
2018-09-27T23:17:03.347Z,100454.16
2018-09-27T23:19:32.230Z,100455.95
2018-09-27T23:22:00.864Z,100449.38
2018-09-27T23:24:29.523Z,100443.73
2018-09-27T23:26:58.211Z,100447.75
2018-09-27T23:29:26.900Z,100448.70
2018-09-27T23:31:55.533Z,100442.59
2018-09-27T23:34:24.268Z,100441.33
2018-09-27T23:36:53.053Z,100388.64
2018-09-27T23:39:21.779Z,100450.59
2018-09-27T23:41:50.438Z,100446.69
2018-09-27T23:44:19.336Z,100440.13
2018-09-27T23:46:48.020Z,100447.64
2018-09-27T23:49:16.726Z,100443.29
2018-09-27T23:51:45.505Z,100440.70
2018-09-27T23:54:14.195Z,100450.80
2018-09-27T23:56:42.802Z,100417.22
2018-09-27T23:59:11.442Z,100449.97
